Date,TemperatureHighF,TemperatureAvgF,TemperatureLowF,DewpointHighF,DewpointAvgF,DewpointLowF,HumidityHigh,HumidityAvg,HumidityLow,PressureMaxIn,PressureMinIn,WindSpeedMaxMPH,WindSpeedAvgMPH,GustSpeedMaxMPH,PrecipitationSumIn
2013-3-1,44,36,32,30,27,21,82,70,57,29.64,29.48,14,4,14,0.05
2013-3-2,37,31,25,21,19,14,69,61,49,29.65,29.58,16,6,16,0.00
2013-3-3,34,26,22,20,14,10,69,59,51,29.63,29.56,21,7,21,0.01
2013-3-4,34,28,25,19,16,14,70,60,49,29.78,29.62,29,10,29,0.22
2013-3-5,44,33,29,24,20,17,71,58,44,29.95,29.77,19,5,19,0.00
2013-3-6,44,36,29,30,23,18,74,61,46,29.99,29.90,13,4,13,0.00
2013-3-7,39,34,30,27,22,16,84,63,43,30.03,29.95,14,4,14,0.05
2013-3-8,43,33,29,29,25,19,85,72,53,30.16,29.97,11,2,11,0.22
2013-3-9,50,35,20,24,18,13,76,54,26,30.37,30.14,10,2,10,0.07
2013-3-10,54,34,20,27,19,13,77,56,27,30.39,30.24,17,5,17,0.00
2013-3-11,50,42,36,38,31,26,73,64,55,30.24,30.00,21,9,24,0.00
2013-3-12,53,48,38,48,41,29,84,78,70,30.01,29.69,22,8,27,0.52
2013-3-13,46,38,32,29,23,15,73,56,30,29.88,29.78,15,5,15,0.00
2013-3-14,33,27,24,19,7,-3,57,43,29,29.91,29.82,29,8,29,0.02
2013-3-15,39,30,16,27,13,-1,76,50,34,29.94,29.66,18,4,18,0.00
2013-3-16,37,30,20,21,11,5,67,45,27,29.91,29.75,11,3,14,0.00
2013-3-17,35,27,17,10,3,-5,55,36,22,30.34,29.91,21,5,21,0.01
2013-3-18,40,27,11,20,5,-4,71,42,21,30.42,30.11,13,3,13,0.00
2013-3-19,38,31,26,32,24,19,83,76,71,30.11,29.73,9,1,9,0.05
2013-3-20,39,27,15,24,16,8,78,63,41,29.84,29.78,16,2,16,0.13
2013-3-21,38,26,10,22,7,1,75,47,24,29.84,29.67,14,3,14,0.14
2013-3-22,39,29,16,24,14,1,68,54,43,29.84,29.69,21,4,21,0.00
2013-3-23,40,34,30,22,18,15,69,53,39,29.91,29.79,27,8,27,0.06
2013-3-24,46,36,30,22,18,16,57,48,32,29.93,29.79,11,3,11,0.00
2013-3-25,46,37,29,25,22,18,65,54,41,29.81,29.55,11,3,11,0.00
2013-3-26,48,38,27,27,20,11,69,49,24,29.88,29.64,14,2,14,0.00
2013-3-27,51,40,25,29,23,12,65,51,34,29.98,29.85,24,5,24,0.00
2013-3-28,49,42,36,33,28,25,73,59,47,30.11,29.96,14,5,15,0.00
2013-3-29,51,45,40,29,27,24,60,50,36,30.12,30.06,17,6,17,0.00
2013-3-30,56,43,27,31,20,14,75,44,21,30.14,30.06,17,4,17,0.00
2013-3-31,57,42,25,36,24,14,78,51,27,30.13,29.71,25,6,25,0.09